sensor_id;sensor_type;location;lat;lon;timestamp;pressure;altitude;pressure_sealevel;temperature;humidity
39891;BME280;25564;53.312;9.790;2022-12-07T00:02:16;100548.53;;;3.64;100.00
39891;BME280;25564;53.312;9.790;2022-12-07T00:04:49;100559.09;;;3.73;100.00
39891;BME280;25564;53.312;9.790;2022-12-07T00:07:20;100508.28;;;3.64;100.00
39891;BME280;25564;53.312;9.790;2022-12-07T00:09:58;100534.56;;;3.67;100.00
39891;BME280;25564;53.312;9.790;2022-12-07T00:12:30;100524.94;;;3.67;100.00
39891;BME280;25564;53.312;9.790;2022-12-07T00:15:02;100519.69;;;3.67;100.00
39891;BME280;25564;53.312;9.790;2022-12-07T00:17:34;100524.06;;;3.70;100.00
39891;BME280;25564;53.312;9.790;2022-12-07T00:20:05;100529.34;;;3.73;100.00
39891;BME280;25564;53.312;9.790;2022-12-07T00:22:38;100507.44;;;3.68;100.00
39891;BME280;25564;53.312;9.790;2022-12-07T00:25:10;100521.53;;;3.80;100.00
39891;BME280;25564;53.312;9.790;2022-12-07T00:27:41;100476.78;;;3.59;100.00
39891;BME280;25564;53.312;9.790;2022-12-07T00:30:13;100503.16;;;3.82;100.00
39891;BME280;25564;53.312;9.790;2022-12-07T00:32:44;100481.22;;;3.69;100.00
39891;BME280;25564;53.312;9.790;2022-12-07T00:35:16;100496.13;;;3.76;100.00
39891;BME280;25564;53.312;9.790;2022-12-07T00:37:47;100494.38;;;3.78;100.00
39891;BME280;25564;53.312;9.790;2022-12-07T00:40:20;100501.44;;;3.85;100.00
39891;BME280;25564;53.312;9.790;2022-12-07T00:42:52;100492.69;;;3.88;100.00
39891;BME280;25564;53.312;9.790;2022-12-07T00:45:24;100497.97;;;3.91;100.00
39891;BME280;25564;53.312;9.790;2022-12-07T00:47:55;100489.22;;;3.92;100.00
39891;BME280;25564;53.312;9.790;2022-12-07T00:50:27;100497.13;;;3.93;100.00
39891;BME280;25564;53.312;9.790;2022-12-07T00:53:00;100495.38;;;3.99;100.00
39891;BME280;25564;53.312;9.790;2022-12-07T00:55:33;100485.72;;;3.93;100.00
39891;BME280;25564;53.312;9.790;2022-12-07T00:58:05;100466.50;;;3.96;100.00
39891;BME280;25564;53.312;9.790;2022-12-07T01:00:38;100407.75;;;3.69;100.00
39891;BME280;25564;53.312;9.790;2022-12-07T01:03:13;100416.50;;;3.73;100.00
39891;BME280;25564;53.312;9.790;2022-12-07T01:05:52;100463.03;;;4.03;100.00
39891;BME280;25564;53.312;9.790;2022-12-07T01:08:26;100474.44;;;4.11;100.00
39891;BME280;25564;53.312;9.790;2022-12-07T01:11:00;100486.69;;;4.18;100.00
39891;BME280;25564;53.312;9.790;2022-12-07T01:13:35;100469.22;;;4.14;100.00
39891;BME280;25564;53.312;9.790;2022-12-07T01:16:07;100465.69;;;4.09;100.00
39891;BME280;25564;53.312;9.790;2022-12-07T01:18:39;100466.56;;;4.09;100.00
39891;BME280;25564;53.312;9.790;2022-12-07T01:21:17;100481.47;;;4.21;100.00
39891;BME280;25564;53.312;9.790;2022-12-07T01:23:49;100446.44;;;4.07;100.00
39891;BME280;25564;53.312;9.790;2022-12-07T01:26:22;100464.84;;;4.14;100.00
39891;BME280;25564;53.312;9.790;2022-12-07T01:28:55;100463.97;;;4.15;100.00
39891;BME280;25564;53.312;9.790;2022-12-07T01:31:27;100435.91;;;4.04;100.00
39891;BME280;25564;53.312;9.790;2022-12-07T01:33:59;100474.47;;;4.21;100.00
39891;BME280;25564;53.312;9.790;2022-12-07T01:36:35;100455.22;;;4.13;100.00
39891;BME280;25564;53.312;9.790;2022-12-07T01:39:08;100469.22;;;4.20;100.00
39891;BME280;25564;53.312;9.790;2022-12-07T01:41:41;100463.06;;;4.19;100.00
39891;BME280;25564;53.312;9.790;2022-12-07T01:44:27;100437.66;;;4.05;100.00
39891;BME280;25564;53.312;9.790;2022-12-07T01:47:03;100450.84;;;4.14;100.00
39891;BME280;25564;53.312;9.790;2022-12-07T01:49:39;100450.81;;;4.08;100.00
39891;BME280;25564;53.312;9.790;2022-12-07T01:52:25;100458.72;;;4.14;100.00
39891;BME280;25564;53.312;9.790;2022-12-07T01:55:04;100413.09;;;3.90;100.00
39891;BME280;25564;53.312;9.790;2022-12-07T01:57:40;100432.41;;;4.05;100.00
39891;BME280;25564;53.312;9.790;2022-12-07T02:00:14;100445.56;;;4.14;100.00
39891;BME280;25564;53.312;9.790;2022-12-07T02:02:57;100444.69;;;4.12;100.00
39891;BME280;25564;53.312;9.790;2022-12-07T02:05:34;100321.00;;;3.36;100.00
39891;BME280;25564;53.312;9.790;2022-12-07T02:08:07;100430.59;;;3.91;100.00
39891;BME280;25564;53.312;9.790;2022-12-07T02:10:39;100447.19;;;3.84;100.00
39891;BME280;25564;53.312;9.790;2022-12-07T02:13:21;100462.91;;;3.80;100.00
39891;BME280;25564;53.312;9.790;2022-12-07T02:24:45;100450.31;;;3.27;100.00
39891;BME280;25564;53.312;9.790;2022-12-07T02:27:33;100452.03;;;3.23;100.00
39891;BME280;25564;53.312;9.790;2022-12-07T02:30:12;100389.66;;;2.80;100.00
39891;BME280;25564;53.312;9.790;2022-12-07T02:33:23;100452.81;;;3.13;100.00
39891;BME280;25564;53.312;9.790;2022-12-07T02:36:02;100411.53;;;2.83;100.00
39891;BME280;25564;53.312;9.790;2022-12-07T02:38:51;100443.94;;;2.93;100.00
39891;BME280;25564;53.312;9.790;2022-12-07T02:41:32;100444.88;;;3.01;100.00
39891;BME280;25564;53.312;9.790;2022-12-07T02:44:07;100440.53;;;3.03;100.00
39891;BME280;25564;53.312;9.790;2022-12-07T02:46:44;100445.88;;;3.18;100.00
39891;BME280;25564;53.312;9.790;2022-12-07T02:49:18;100443.22;;;3.17;100.00
39891;BME280;25564;53.312;9.790;2022-12-07T02:51:52;100440.63;;;3.18;100.00
39891;BME280;25564;53.312;9.790;2022-12-07T02:54:23;100459.91;;;3.23;100.00
39891;BME280;25564;53.312;9.790;2022-12-07T02:57:15;100458.13;;;3.22;100.00
39891;BME280;25564;53.312;9.790;2022-12-07T03:00:00;100421.31;;;3.04;100.00
39891;BME280;25564;53.312;9.790;2022-12-07T03:02:48;100449.34;;;3.14;100.00
39891;BME280;25564;53.312;9.790;2022-12-07T03:05:35;100432.63;;;2.99;100.00
39891;BME280;25564;53.312;9.790;2022-12-07T03:10:56;100435.09;;;2.82;100.00
39891;BME280;25564;53.312;9.790;2022-12-07T03:13:48;100463.97;;;2.88;100.00
39891;BME280;25564;53.312;9.790;2022-12-07T03:16:35;100463.03;;;2.80;100.00
39891;BME280;25564;53.312;9.790;2022-12-07T03:19:16;100433.19;;;2.64;100.00
39891;BME280;25564;53.312;9.790;2022-12-07T03:21:56;100437.53;;;2.62;100.00
39891;BME280;25564;53.312;9.790;2022-12-07T03:24:34;100445.28;;;2.53;100.00
39891;BME280;25564;53.312;9.790;2022-12-07T03:27:15;100448.78;;;2.53;100.00
39891;BME280;25564;53.312;9.790;2022-12-07T03:29:54;100446.94;;;2.45;100.00
39891;BME280;25564;53.312;9.790;2022-12-07T03:32:31;100420.63;;;2.33;100.00
39891;BME280;25564;53.312;9.790;2022-12-07T03:35:29;100368.78;;;1.98;100.00
39891;BME280;25564;53.312;9.790;2022-12-07T03:38:18;100427.44;;;2.17;100.00
39891;BME280;25564;53.312;9.790;2022-12-07T03:40:59;100434.44;;;2.21;100.00
39891;BME280;25564;53.312;9.790;2022-12-07T03:43:32;100423.88;;;2.12;100.00
39891;BME280;25564;53.312;9.790;2022-12-07T03:49:12;100443.97;;;2.13;100.00
39891;BME280;25564;53.312;9.790;2022-12-07T03:52:04;100445.72;;;2.15;100.00
39891;BME280;25564;53.312;9.790;2022-12-07T03:55:01;100435.19;;;2.06;100.00
39891;BME280;25564;53.312;9.790;2022-12-07T03:57:36;100429.94;;;2.05;100.00
39891;BME280;25564;53.312;9.790;2022-12-07T04:00:10;100382.47;;;1.74;100.00
39891;BME280;25564;53.312;9.790;2022-12-07T04:02:42;100436.84;;;2.00;100.00
39891;BME280;25564;53.312;9.790;2022-12-07T04:05:14;100443.75;;;1.94;100.00
39891;BME280;25564;53.312;9.790;2022-12-07T04:07:46;100443.81;;;1.98;100.00
39891;BME280;25564;53.312;9.790;2022-12-07T04:10:18;100455.16;;;1.98;100.00
39891;BME280;25564;53.312;9.790;2022-12-07T04:12:50;100428.72;;;1.78;100.00
39891;BME280;25564;53.312;9.790;2022-12-07T04:15:21;100440.16;;;1.86;100.00
39891;BME280;25564;53.312;9.790;2022-12-07T04:17:53;100449.00;;;1.96;100.00
39891;BME280;25564;53.312;9.790;2022-12-07T04:20:27;100451.75;;;2.07;100.00
39891;BME280;25564;53.312;9.790;2022-12-07T04:22:58;100446.56;;;2.11;100.00
39891;BME280;25564;53.312;9.790;2022-12-07T04:25:30;100442.22;;;2.15;100.00
39891;BME280;25564;53.312;9.790;2022-12-07T04:28:02;100448.50;;;2.29;100.00
39891;BME280;25564;53.312;9.790;2022-12-07T04:30:33;100450.22;;;2.27;100.00
39891;BME280;25564;53.312;9.790;2022-12-07T04:33:05;100449.44;;;2.34;100.00
39891;BME280;25564;53.312;9.790;2022-12-07T04:35:36;100448.66;;;2.41;100.00
39891;BME280;25564;53.312;9.790;2022-12-07T04:38:08;100441.63;;;2.37;100.00
39891;BME280;25564;53.312;9.790;2022-12-07T04:40:41;100465.34;;;2.52;100.00
39891;BME280;25564;53.312;9.790;2022-12-07T04:43:12;100454.00;;;2.52;100.00
39891;BME280;25564;53.312;9.790;2022-12-07T04:45:47;100446.09;;;2.47;100.00
39891;BME280;25564;53.312;9.790;2022-12-07T04:48:19;100457.56;;;2.57;100.00
39891;BME280;25564;53.312;9.790;2022-12-07T04:50:50;100446.13;;;2.50;100.00
39891;BME280;25564;53.312;9.790;2022-12-07T04:53:22;100432.97;;;2.44;100.00
39891;BME280;25564;53.312;9.790;2022-12-07T04:55:54;100453.13;;;2.50;100.00
39891;BME280;25564;53.312;9.790;2022-12-07T04:58:25;100447.91;;;2.53;100.00
39891;BME280;25564;53.312;9.790;2022-12-07T05:00:58;100434.72;;;2.45;100.00
39891;BME280;25564;53.312;9.790;2022-12-07T05:03:30;100444.38;;;2.49;100.00
39891;BME280;25564;53.312;9.790;2022-12-07T05:06:01;100457.53;;;2.55;100.00
39891;BME280;25564;53.312;9.790;2022-12-07T05:08:35;100439.06;;;2.42;100.00
39891;BME280;25564;53.312;9.790;2022-12-07T05:11:07;100435.50;;;2.37;100.00
39891;BME280;25564;53.312;9.790;2022-12-07T05:13:39;100444.16;;;2.31;100.00
39891;BME280;25564;53.312;9.790;2022-12-07T05:16:11;100454.72;;;2.37;100.00
39891;BME280;25564;53.312;9.790;2022-12-07T05:18:43;100449.41;;;2.31;100.00
39891;BME280;25564;53.312;9.790;2022-12-07T05:21:14;100446.66;;;2.19;100.00
39891;BME280;25564;53.312;9.790;2022-12-07T05:23:46;100432.59;;;2.08;100.00
39891;BME280;25564;53.312;9.790;2022-12-07T05:26:17;100450.97;;;2.15;100.00
39891;BME280;25564;53.312;9.790;2022-12-07T05:28:53;100440.41;;;2.05;100.00
39891;BME280;25564;53.312;9.790;2022-12-07T05:31:27;100457.00;;;2.10;100.00
39891;BME280;25564;53.312;9.790;2022-12-07T05:33:59;100444.66;;;1.96;100.00
39891;BME280;25564;53.312;9.790;2022-12-07T05:36:31;100429.75;;;1.91;100.00
39891;BME280;25564;53.312;9.790;2022-12-07T05:39:04;100429.63;;;1.82;100.00
39891;BME280;25564;53.312;9.790;2022-12-07T05:41:37;100433.06;;;1.78;100.00
39891;BME280;25564;53.312;9.790;2022-12-07T05:44:33;100443.44;;;1.72;100.00
39891;BME280;25564;53.312;9.790;2022-12-07T05:47:05;100439.84;;;1.63;100.00
39891;BME280;25564;53.312;9.790;2022-12-07T05:49:38;100452.09;;;1.66;100.00
39891;BME280;25564;53.312;9.790;2022-12-07T05:52:11;100426.63;;;1.53;100.00
39891;BME280;25564;53.312;9.790;2022-12-07T05:54:43;100433.53;;;1.48;100.00
39891;BME280;25564;53.312;9.790;2022-12-07T05:57:22;100437.00;;;1.47;100.00
39891;BME280;25564;53.312;9.790;2022-12-07T05:59:54;100431.72;;;1.44;100.00
39891;BME280;25564;53.312;9.790;2022-12-07T06:02:27;100437.00;;;1.47;100.00
39891;BME280;25564;53.312;9.790;2022-12-07T06:04:59;100443.97;;;1.48;100.00
39891;BME280;25564;53.312;9.790;2022-12-07T06:07:31;100442.22;;;1.47;100.00
39891;BME280;25564;53.312;9.790;2022-12-07T06:10:02;100442.22;;;1.47;99.97
39891;BME280;25564;53.312;9.790;2022-12-07T06:12:35;100440.50;;;1.49;100.00
39891;BME280;25564;53.312;9.790;2022-12-07T06:15:10;100433.53;;;1.48;100.00
39891;BME280;25564;53.312;9.790;2022-12-07T06:17:41;100425.66;;;1.46;100.00
39891;BME280;25564;53.312;9.790;2022-12-07T06:20:14;100451.22;;;1.67;100.00
39891;BME280;25564;53.312;9.790;2022-12-07T06:22:46;100449.56;;;1.72;100.00
39891;BME280;25564;53.312;9.790;2022-12-07T06:25:17;100437.44;;;1.77;100.00
39891;BME280;25564;53.312;9.790;2022-12-07T06:27:49;100419.97;;;1.76;100.00
39891;BME280;25564;53.312;9.790;2022-12-07T06:30:20;100436.59;;;1.80;100.00
39891;BME280;25564;53.312;9.790;2022-12-07T06:32:51;100433.13;;;1.81;100.00
39891;BME280;25564;53.312;9.790;2022-12-07T06:35:23;100425.91;;;1.64;100.00
39891;BME280;25564;53.312;9.790;2022-12-07T06:37:57;100430.28;;;1.64;100.00
39891;BME280;25564;53.312;9.790;2022-12-07T06:40:30;100425.84;;;1.58;100.00
39891;BME280;25564;53.312;9.790;2022-12-07T06:43:03;100409.09;;;1.46;100.00
39891;BME280;25564;53.312;9.790;2022-12-07T06:45:37;100389.81;;;1.38;100.00
39891;BME280;25564;53.312;9.790;2022-12-07T06:48:10;100429.38;;;1.62;100.00
39891;BME280;25564;53.312;9.790;2022-12-07T06:50:44;100408.28;;;1.51;100.00
39891;BME280;25564;53.312;9.790;2022-12-07T06:53:24;100411.06;;;1.62;100.00
39891;BME280;25564;53.312;9.790;2022-12-07T06:55:57;100421.59;;;1.68;100.00
39891;BME280;25564;53.312;9.790;2022-12-07T06:58:28;100420.78;;;1.72;100.00
39891;BME280;25564;53.312;9.790;2022-12-07T07:01:00;100424.28;;;1.73;100.00
39891;BME280;25564;53.312;9.790;2022-12-07T07:03:31;100415.53;;;1.71;100.00
39891;BME280;25564;53.312;9.790;2022-12-07T07:06:04;100420.00;;;1.78;100.00
39891;BME280;25564;53.312;9.790;2022-12-07T07:08:37;100436.72;;;1.89;100.00
39891;BME280;25564;53.312;9.790;2022-12-07T07:11:10;100421.81;;;1.83;100.00
39891;BME280;25564;53.312;9.790;2022-12-07T07:13:42;100440.25;;;1.92;100.00
39891;BME280;25564;53.312;9.790;2022-12-07T07:16:13;100358.59;;;1.50;100.00
39891;BME280;25564;53.312;9.790;2022-12-07T07:18:45;100448.97;;;1.93;100.00
39891;BME280;25564;53.312;9.790;2022-12-07T07:21:18;100437.53;;;1.86;100.00
39891;BME280;25564;53.312;9.790;2022-12-07T07:23:49;100432.25;;;1.82;100.00
39891;BME280;25564;53.312;9.790;2022-12-07T07:26:21;100451.59;;;1.94;100.00
39891;BME280;25564;53.312;9.790;2022-12-07T07:28:53;100451.59;;;1.94;100.00
39891;BME280;25564;53.312;9.790;2022-12-07T07:31:25;100441.09;;;1.91;100.00
39891;BME280;25564;53.312;9.790;2022-12-07T07:33:56;100451.66;;;1.98;100.00
39891;BME280;25564;53.312;9.790;2022-12-07T07:36:27;100453.41;;;1.99;100.00
39891;BME280;25564;53.312;9.790;2022-12-07T07:38:59;100459.56;;;2.04;100.00
39891;BME280;25564;53.312;9.790;2022-12-07T07:41:31;100456.13;;;2.08;100.00
39891;BME280;25564;53.312;9.790;2022-12-07T07:44:02;100462.25;;;2.10;100.00
39891;BME280;25564;53.312;9.790;2022-12-07T07:46:34;100462.25;;;2.11;100.00
39891;BME280;25564;53.312;9.790;2022-12-07T07:49:06;100464.91;;;2.13;100.00
39891;BME280;25564;53.312;9.790;2022-12-07T07:51:37;100473.66;;;2.15;100.00
39891;BME280;25564;53.312;9.790;2022-12-07T07:54:08;100476.31;;;2.18;100.00
39891;BME280;25564;53.312;9.790;2022-12-07T07:56:40;100471.03;;;2.15;100.00
39891;BME280;25564;53.312;9.790;2022-12-07T07:59:11;100470.19;;;2.17;100.00
39891;BME280;25564;53.312;9.790;2022-12-07T08:01:42;100468.47;;;2.21;100.00
39891;BME280;25564;53.312;9.790;2022-12-07T08:04:14;100472.88;;;2.22;100.00
39891;BME280;25564;53.312;9.790;2022-12-07T08:06:45;100469.38;;;2.23;100.00
39891;BME280;25564;53.312;9.790;2022-12-07T08:09:17;100467.69;;;2.26;100.00
39891;BME280;25564;53.312;9.790;2022-12-07T08:11:48;100468.59;;;2.30;100.00
39891;BME280;25564;53.312;9.790;2022-12-07T08:14:19;100464.25;;;2.32;100.00
39891;BME280;25564;53.312;9.790;2022-12-07T08:16:51;100470.44;;;2.39;100.00
39891;BME280;25564;53.312;9.790;2022-12-07T08:19:22;100458.22;;;2.39;100.00
39891;BME280;25564;53.312;9.790;2022-12-07T08:21:54;100466.16;;;2.45;100.00
39891;BME280;25564;53.312;9.790;2022-12-07T08:24:26;100464.44;;;2.47;100.00
39891;BME280;25564;53.312;9.790;2022-12-07T08:26:58;100474.97;;;2.53;100.00
39891;BME280;25564;53.312;9.790;2022-12-07T08:29:29;100469.78;;;2.56;100.00
39891;BME280;25564;53.312;9.790;2022-12-07T08:32:00;100463.69;;;2.59;100.00
39891;BME280;25564;53.312;9.790;2022-12-07T08:34:39;100461.13;;;2.63;100.00
39891;BME280;25564;53.312;9.790;2022-12-07T08:37:11;100467.22;;;2.64;100.00
39891;BME280;25564;53.312;9.790;2022-12-07T08:39:42;100466.41;;;2.70;100.00
39891;BME280;25564;53.312;9.790;2022-12-07T08:42:13;100465.56;;;2.72;100.00
39891;BME280;25564;53.312;9.790;2022-12-07T08:44:45;100464.78;;;2.81;100.00
39891;BME280;25564;53.312;9.790;2022-12-07T08:47:17;100466.63;;;2.89;100.00
39891;BME280;25564;53.312;9.790;2022-12-07T08:49:49;100460.56;;;2.95;100.00
39891;BME280;25564;53.312;9.790;2022-12-07T08:52:21;100466.75;;;3.03;100.00
39891;BME280;25564;53.312;9.790;2022-12-07T08:54:53;100468.56;;;3.10;100.00
39891;BME280;25564;53.312;9.790;2022-12-07T08:57:25;100467.72;;;3.17;100.00
39891;BME280;25564;53.312;9.790;2022-12-07T08:59:57;100467.78;;;3.25;100.00
39891;BME280;25564;53.312;9.790;2022-12-07T09:02:30;100471.31;;;3.32;100.00
39891;BME280;25564;53.312;9.790;2022-12-07T09:05:02;100474.88;;;3.38;100.00
39891;BME280;25564;53.312;9.790;2022-12-07T09:07:34;100474.94;;;3.46;100.00
39891;BME280;25564;53.312;9.790;2022-12-07T09:10:07;100469.69;;;3.49;100.00
39891;BME280;25564;53.312;9.790;2022-12-07T09:12:38;100484.59;;;3.53;100.00
39891;BME280;25564;53.312;9.790;2022-12-07T09:15:10;100486.41;;;3.60;100.00
39891;BME280;25564;53.312;9.790;2022-12-07T09:17:41;100484.66;;;3.60;100.00
39891;BME280;25564;53.312;9.790;2022-12-07T09:20:13;100489.94;;;3.65;100.00
39891;BME280;25564;53.312;9.790;2022-12-07T09:22:44;100490.81;;;3.67;100.00
39891;BME280;25564;53.312;9.790;2022-12-07T09:25:15;100494.31;;;3.68;100.00
39891;BME280;25564;53.312;9.790;2022-12-07T09:27:47;100498.72;;;3.70;100.00
39891;BME280;25564;53.312;9.790;2022-12-07T09:30:19;100515.34;;;3.71;100.00
39891;BME280;25564;53.312;9.790;2022-12-07T09:32:52;100511.81;;;3.66;100.00
39891;BME280;25564;53.312;9.790;2022-12-07T09:35:24;100516.97;;;3.56;100.00
39891;BME280;25564;53.312;9.790;2022-12-07T09:37:56;100529.19;;;3.51;100.00
39891;BME280;25564;53.312;9.790;2022-12-07T09:40:27;100538.63;;;3.33;100.00
39891;BME280;25564;53.312;9.790;2022-12-07T09:42:59;100532.28;;;3.05;100.00
39891;BME280;25564;53.312;9.790;2022-12-07T09:45:35;100497.97;;;2.80;100.00
39891;BME280;25564;53.312;9.790;2022-12-07T09:48:20;100466.44;;;2.73;100.00
39891;BME280;25564;53.312;9.790;2022-12-07T09:50:53;100457.75;;;2.77;100.00
39891;BME280;25564;53.312;9.790;2022-12-07T09:53:36;100470.88;;;2.80;100.00
39891;BME280;25564;53.312;9.790;2022-12-07T09:56:15;100471.00;;;2.92;100.00
39891;BME280;25564;53.312;9.790;2022-12-07T09:58:48;100465.03;;;3.07;100.00
39891;BME280;25564;53.312;9.790;2022-12-07T10:01:21;100472.06;;;3.15;100.00
39891;BME280;25564;53.312;9.790;2022-12-07T10:03:55;100462.56;;;3.28;100.00
39891;BME280;25564;53.312;9.790;2022-12-07T10:06:30;100454.72;;;3.33;100.00
39891;BME280;25564;53.312;9.790;2022-12-07T10:09:07;100462.63;;;3.39;100.00
39891;BME280;25564;53.312;9.790;2022-12-07T10:12:10;100454.78;;;3.42;100.00
39891;BME280;25564;53.312;9.790;2022-12-07T10:15:00;100453.09;;;3.51;100.00
39891;BME280;25564;53.312;9.790;2022-12-07T10:17:40;100454.03;;;3.59;100.00
39891;BME280;25564;53.312;9.790;2022-12-07T10:20:20;100454.09;;;3.69;100.00
39891;BME280;25564;53.312;9.790;2022-12-07T10:23:08;100461.16;;;3.79;100.00
39891;BME280;25564;53.312;9.790;2022-12-07T10:25:44;100465.56;;;3.87;100.00
39891;BME280;25564;53.312;9.790;2022-12-07T10:28:17;100453.34;;;3.92;100.00
39891;BME280;25564;53.312;9.790;2022-12-07T10:30:59;100462.19;;;4.07;100.00
39891;BME280;25564;53.312;9.790;2022-12-07T10:33:35;100460.47;;;4.24;100.00
39891;BME280;25564;53.312;9.790;2022-12-07T10:36:19;100462.25;;;4.36;100.00
39891;BME280;25564;53.312;9.790;2022-12-07T10:38:59;100453.47;;;4.29;100.00
39891;BME280;25564;53.312;9.790;2022-12-07T10:41:31;100456.13;;;4.32;100.00
39891;BME280;25564;53.312;9.790;2022-12-07T10:44:02;100464.00;;;4.32;100.00
39891;BME280;25564;53.312;9.790;2022-12-07T10:46:45;100463.13;;;4.30;100.00
39891;BME280;25564;53.312;9.790;2022-12-07T10:52:18;100467.47;;;4.22;100.00
39891;BME280;25564;53.312;9.790;2022-12-07T11:00:34;100452.56;;;4.09;100.00
39891;BME280;25564;53.312;9.790;2022-12-07T11:03:23;100449.88;;;4.00;100.00
39891;BME280;25564;53.312;9.790;2022-12-07T11:06:12;100441.13;;;3.94;100.00
39891;BME280;25564;53.312;9.790;2022-12-07T11:09:03;100447.28;;;4.03;100.00
39891;BME280;25564;53.312;9.790;2022-12-07T11:11:49;100449.06;;;4.13;100.00
39891;BME280;25564;53.312;9.790;2022-12-07T11:14:50;100453.44;;;4.20;100.00
39891;BME280;25564;53.312;9.790;2022-12-07T11:17:42;100451.72;;;4.25;100.00
39891;BME280;25564;53.312;9.790;2022-12-07T11:20:35;100451.75;;;4.34;100.00
39891;BME280;25564;53.312;9.790;2022-12-07T11:23:30;100453.53;;;4.41;100.00
39891;BME280;25564;53.312;9.790;2022-12-07T11:26:12;100446.53;;;4.43;100.00
39891;BME280;25564;53.312;9.790;2022-12-07T11:29:34;100443.03;;;4.47;100.00
39891;BME280;25564;53.312;9.790;2022-12-07T11:31:58;100443.03;;;4.50;100.00
39891;BME280;25564;53.312;9.790;2022-12-07T11:34:59;100429.91;;;4.47;100.00
39891;BME280;25564;53.312;9.790;2022-12-07T11:37:36;100436.03;;;4.49;100.00
39891;BME280;25564;53.312;9.790;2022-12-07T11:40:27;100425.53;;;4.51;100.00
39891;BME280;25564;53.312;9.790;2022-12-07T11:45:33;100418.53;;;4.60;100.00
39891;BME280;25564;53.312;9.790;2022-12-07T11:48:25;100422.03;;;4.56;100.00
39891;BME280;25564;53.312;9.790;2022-12-07T11:51:02;100427.28;;;4.53;100.00
39891;BME280;25564;53.312;9.790;2022-12-07T11:53:39;100423.78;;;4.53;100.00
39891;BME280;25564;53.312;9.790;2022-12-07T11:56:16;100415.03;;;4.58;100.00
39891;BME280;25564;53.312;9.790;2022-12-07T12:06:44;100408.03;;;4.57;100.00
39891;BME280;25564;53.312;9.790;2022-12-07T12:09:28;100403.63;;;4.55;100.00
39891;BME280;25564;53.312;9.790;2022-12-07T12:12:26;100402.75;;;4.51;100.00
39891;BME280;25564;53.312;9.790;2022-12-07T12:15:42;100400.13;;;4.51;100.00
39891;BME280;25564;53.312;9.790;2022-12-07T12:21:26;100397.50;;;4.56;100.00
39891;BME280;25564;53.312;9.790;2022-12-07T12:24:11;100405.41;;;4.60;100.00
39891;BME280;25564;53.312;9.790;2022-12-07T12:26:55;100402.78;;;4.64;100.00
39891;BME280;25564;53.312;9.790;2022-12-07T12:32:16;100394.91;;;4.68;100.00
39891;BME280;25564;53.312;9.790;2022-12-07T12:34:59;100404.53;;;4.74;100.00
39891;BME280;25564;53.312;9.790;2022-12-07T12:42:53;100394.03;;;4.80;100.00
39891;BME280;25564;53.312;9.790;2022-12-07T12:45:27;100392.28;;;4.82;100.00
39891;BME280;25564;53.312;9.790;2022-12-07T12:48:03;100392.28;;;4.76;100.00
39891;BME280;25564;53.312;9.790;2022-12-07T12:50:38;100390.53;;;4.75;100.00
39891;BME280;25564;53.312;9.790;2022-12-07T12:53:22;100394.91;;;4.67;100.00
39891;BME280;25564;53.312;9.790;2022-12-07T12:58:47;100384.38;;;4.53;100.00
39891;BME280;25564;53.312;9.790;2022-12-07T13:04:26;100379.09;;;4.44;100.00
39891;BME280;25564;53.312;9.790;2022-12-07T13:06:58;100385.19;;;4.32;100.00
39891;BME280;25564;53.312;9.790;2022-12-07T13:09:33;100379.94;;;4.23;100.00
39891;BME280;25564;53.312;9.790;2022-12-07T13:12:13;100383.41;;;4.19;100.00
39891;BME280;25564;53.312;9.790;2022-12-07T13:20:06;100372.88;;;4.01;100.00
39891;BME280;25564;53.312;9.790;2022-12-07T13:22:48;100377.25;;;3.99;100.00
39891;BME280;25564;53.312;9.790;2022-12-07T13:25:33;100371.13;;;3.97;100.00
39891;BME280;25564;53.312;9.790;2022-12-07T13:28:14;100376.38;;;3.97;100.00
39891;BME280;25564;53.312;9.790;2022-12-07T13:30:58;100371.13;;;3.95;100.00
39891;BME280;25564;53.312;9.790;2022-12-07T13:33:30;100376.38;;;3.97;100.00
39891;BME280;25564;53.312;9.790;2022-12-07T13:36:14;100373.75;;;4.00;100.00
39891;BME280;25564;53.312;9.790;2022-12-07T13:38:50;100375.50;;;3.99;100.00
39891;BME280;25564;53.312;9.790;2022-12-07T13:41:25;100379.03;;;4.04;100.00
39891;BME280;25564;53.312;9.790;2022-12-07T13:44:14;100380.78;;;4.05;100.00
39891;BME280;25564;53.312;9.790;2022-12-07T13:46:55;100377.28;;;4.09;100.00
39891;BME280;25564;53.312;9.790;2022-12-07T13:49:30;100370.28;;;4.11;100.00
39891;BME280;25564;53.312;9.790;2022-12-07T13:52:18;100379.91;;;4.17;100.00
39891;BME280;25564;53.312;9.790;2022-12-07T13:54:58;100375.53;;;4.20;100.00
39891;BME280;25564;53.312;9.790;2022-12-07T13:57:33;100372.94;;;4.25;100.00
39891;BME280;25564;53.312;9.790;2022-12-07T14:00:15;100381.69;;;4.33;100.00
39891;BME280;25564;53.312;9.790;2022-12-07T14:03:03;100385.22;;;4.41;100.00
39891;BME280;25564;53.312;9.790;2022-12-07T14:05:35;100386.97;;;4.42;100.00
39891;BME280;25564;53.312;9.790;2022-12-07T14:10:55;100387.84;;;4.41;100.00
39891;BME280;25564;53.312;9.790;2022-12-07T14:13:31;100386.97;;;4.39;100.00
39891;BME280;25564;53.312;9.790;2022-12-07T14:16:05;100385.22;;;4.40;100.00
39891;BME280;25564;53.312;9.790;2022-12-07T14:18:48;100391.34;;;4.36;100.00
39891;BME280;25564;53.312;9.790;2022-12-07T14:21:22;100383.44;;;4.31;100.00
39891;BME280;25564;53.312;9.790;2022-12-07T14:24:14;100388.69;;;4.22;100.00
39891;BME280;25564;53.312;9.790;2022-12-07T14:26:48;100391.31;;;4.22;100.00
39891;BME280;25564;53.312;9.790;2022-12-07T14:32:01;100383.41;;;4.19;100.00
39891;BME280;25564;53.312;9.790;2022-12-07T14:35:00;100386.94;;;4.15;100.00
39891;BME280;25564;53.312;9.790;2022-12-07T14:37:32;100380.81;;;4.14;100.00
39891;BME280;25564;53.312;9.790;2022-12-07T14:40:04;100378.16;;;4.04;100.00